sensor_id;sensor_type;location;lat;lon;timestamp;temperature;humidity
64961;SHT31;51487;52.266;10.542;2023-03-19T00:02:05;11.50;92.99
64961;SHT31;51487;52.266;10.542;2023-03-19T00:04:31;11.53;92.72
64961;SHT31;51487;52.266;10.542;2023-03-19T00:06:56;11.43;92.60
64961;SHT31;51487;52.266;10.542;2023-03-19T00:09:22;11.40;92.60
64961;SHT31;51487;52.266;10.542;2023-03-19T00:11:47;11.36;92.31
64961;SHT31;51487;52.266;10.542;2023-03-19T00:14:14;11.47;91.83
64961;SHT31;51487;52.266;10.542;2023-03-19T00:16:39;11.36;92.16
64961;SHT31;51487;52.266;10.542;2023-03-19T00:19:05;11.44;92.08
64961;SHT31;51487;52.266;10.542;2023-03-19T00:21:31;11.40;91.91
64961;SHT31;51487;52.266;10.542;2023-03-19T00:23:57;11.39;92.01
64961;SHT31;51487;52.266;10.542;2023-03-19T00:26:26;11.41;91.99
64961;SHT31;51487;52.266;10.542;2023-03-19T00:28:53;11.49;91.87
64961;SHT31;51487;52.266;10.542;2023-03-19T00:31:18;11.43;92.14
64961;SHT31;51487;52.266;10.542;2023-03-19T00:33:43;11.46;92.20
64961;SHT31;51487;52.266;10.542;2023-03-19T00:36:10;11.40;92.37
64961;SHT31;51487;52.266;10.542;2023-03-19T00:38:36;11.44;92.37
64961;SHT31;51487;52.266;10.542;2023-03-19T00:41:03;11.40;92.44
64961;SHT31;51487;52.266;10.542;2023-03-19T00:43:29;11.41;92.79
64961;SHT31;51487;52.266;10.542;2023-03-19T00:45:54;11.37;92.79
64961;SHT31;51487;52.266;10.542;2023-03-19T00:48:20;11.37;92.85
64961;SHT31;51487;52.266;10.542;2023-03-19T00:50:46;11.40;93.10
64961;SHT31;51487;52.266;10.542;2023-03-19T00:53:12;11.44;93.10
64961;SHT31;51487;52.266;10.542;2023-03-19T00:55:37;11.49;92.94
64961;SHT31;51487;52.266;10.542;2023-03-19T00:58:02;11.50;93.29
64961;SHT31;51487;52.266;10.542;2023-03-19T01:00:28;11.53;93.04
64961;SHT31;51487;52.266;10.542;2023-03-19T01:02:53;11.53;93.06
64961;SHT31;51487;52.266;10.542;2023-03-19T01:05:19;11.53;92.98
64961;SHT31;51487;52.266;10.542;2023-03-19T01:07:44;11.43;93.37
64961;SHT31;51487;52.266;10.542;2023-03-19T01:10:10;11.46;93.42
64961;SHT31;51487;52.266;10.542;2023-03-19T01:12:36;11.41;93.41
64961;SHT31;51487;52.266;10.542;2023-03-19T01:15:02;11.49;92.95
64961;SHT31;51487;52.266;10.542;2023-03-19T01:17:28;11.43;93.36
64961;SHT31;51487;52.266;10.542;2023-03-19T01:19:54;11.41;93.50
64961;SHT31;51487;52.266;10.542;2023-03-19T01:22:19;11.33;93.36
64961;SHT31;51487;52.266;10.542;2023-03-19T01:24:44;11.27;93.56
64961;SHT31;51487;52.266;10.542;2023-03-19T01:27:11;11.19;93.67
64961;SHT31;51487;52.266;10.542;2023-03-19T01:29:36;11.08;94.07
64961;SHT31;51487;52.266;10.542;2023-03-19T01:32:02;11.03;94.27
64961;SHT31;51487;52.266;10.542;2023-03-19T01:34:27;10.95;94.21
64961;SHT31;51487;52.266;10.542;2023-03-19T01:36:52;10.89;94.41
64961;SHT31;51487;52.266;10.542;2023-03-19T01:39:18;10.81;94.95
64961;SHT31;51487;52.266;10.542;2023-03-19T01:41:43;10.75;95.27
64961;SHT31;51487;52.266;10.542;2023-03-19T01:44:26;10.69;95.23
64961;SHT31;51487;52.266;10.542;2023-03-19T01:46:51;10.65;95.41
64961;SHT31;51487;52.266;10.542;2023-03-19T01:49:18;10.64;95.42
64961;SHT31;51487;52.266;10.542;2023-03-19T01:51:46;10.58;95.48
64961;SHT31;51487;52.266;10.542;2023-03-19T01:54:18;10.54;95.55
64961;SHT31;51487;52.266;10.542;2023-03-19T01:56:48;10.54;95.79
64961;SHT31;51487;52.266;10.542;2023-03-19T01:59:22;10.48;95.90
64961;SHT31;51487;52.266;10.542;2023-03-19T02:01:55;10.53;95.84
64961;SHT31;51487;52.266;10.542;2023-03-19T02:04:24;10.45;96.18
64961;SHT31;51487;52.266;10.542;2023-03-19T02:06:51;10.43;96.12
64961;SHT31;51487;52.266;10.542;2023-03-19T02:09:18;10.36;96.49
64961;SHT31;51487;52.266;10.542;2023-03-19T02:11:44;10.34;96.58
64961;SHT31;51487;52.266;10.542;2023-03-19T02:14:09;10.38;96.64
64961;SHT31;51487;52.266;10.542;2023-03-19T02:16:36;10.37;96.63
64961;SHT31;51487;52.266;10.542;2023-03-19T02:19:02;10.38;96.75
64961;SHT31;51487;52.266;10.542;2023-03-19T02:21:27;10.43;96.76
64961;SHT31;51487;52.266;10.542;2023-03-19T02:24:02;10.48;96.57
64961;SHT31;51487;52.266;10.542;2023-03-19T02:26:31;10.53;96.53
64961;SHT31;51487;52.266;10.542;2023-03-19T02:28:56;10.53;96.38
64961;SHT31;51487;52.266;10.542;2023-03-19T02:31:22;10.55;96.23
64961;SHT31;51487;52.266;10.542;2023-03-19T02:34:02;10.60;96.17
64961;SHT31;51487;52.266;10.542;2023-03-19T02:36:34;10.67;95.91
64961;SHT31;51487;52.266;10.542;2023-03-19T02:39:03;10.67;95.92
64961;SHT31;51487;52.266;10.542;2023-03-19T02:41:31;10.69;95.83
64961;SHT31;51487;52.266;10.542;2023-03-19T02:43:58;10.67;95.83
64961;SHT31;51487;52.266;10.542;2023-03-19T02:46:26;10.68;95.91
64961;SHT31;51487;52.266;10.542;2023-03-19T02:48:51;10.72;95.89
64961;SHT31;51487;52.266;10.542;2023-03-19T02:51:17;10.72;95.76
64961;SHT31;51487;52.266;10.542;2023-03-19T02:53:44;10.68;95.58
64961;SHT31;51487;52.266;10.542;2023-03-19T02:56:10;10.65;95.67
64961;SHT31;51487;52.266;10.542;2023-03-19T02:58:35;10.68;95.73
64961;SHT31;51487;52.266;10.542;2023-03-19T03:01:01;10.67;95.58
64961;SHT31;51487;52.266;10.542;2023-03-19T03:03:26;10.60;95.68
64961;SHT31;51487;52.266;10.542;2023-03-19T03:05:51;10.50;95.73
64961;SHT31;51487;52.266;10.542;2023-03-19T03:08:17;10.47;95.70
64961;SHT31;51487;52.266;10.542;2023-03-19T03:10:42;10.41;95.87
64961;SHT31;51487;52.266;10.542;2023-03-19T03:13:08;10.41;95.83
64961;SHT31;51487;52.266;10.542;2023-03-19T03:15:33;10.36;96.12
64961;SHT31;51487;52.266;10.542;2023-03-19T03:17:58;10.33;96.00
64961;SHT31;51487;52.266;10.542;2023-03-19T03:20:25;10.24;96.09
64961;SHT31;51487;52.266;10.542;2023-03-19T03:22:50;10.18;96.27
64961;SHT31;51487;52.266;10.542;2023-03-19T03:25:16;10.13;96.61
64961;SHT31;51487;52.266;10.542;2023-03-19T03:27:42;10.12;96.58
64961;SHT31;51487;52.266;10.542;2023-03-19T03:30:08;10.09;96.69
64961;SHT31;51487;52.266;10.542;2023-03-19T03:32:35;10.06;96.80
64961;SHT31;51487;52.266;10.542;2023-03-19T03:35:01;10.06;96.95
64961;SHT31;51487;52.266;10.542;2023-03-19T03:37:28;10.10;96.89
64961;SHT31;51487;52.266;10.542;2023-03-19T03:39:53;10.13;96.88
64961;SHT31;51487;52.266;10.542;2023-03-19T03:42:20;10.17;96.81
64961;SHT31;51487;52.266;10.542;2023-03-19T03:44:45;10.18;96.86
64961;SHT31;51487;52.266;10.542;2023-03-19T03:47:11;10.18;96.71
64961;SHT31;51487;52.266;10.542;2023-03-19T03:49:37;10.25;96.65
64961;SHT31;51487;52.266;10.542;2023-03-19T03:52:03;10.24;96.49
64961;SHT31;51487;52.266;10.542;2023-03-19T03:54:28;10.32;96.28
64961;SHT31;51487;52.266;10.542;2023-03-19T03:56:53;10.24;96.27
64961;SHT31;51487;52.266;10.542;2023-03-19T03:59:19;10.16;96.42
64961;SHT31;51487;52.266;10.542;2023-03-19T04:01:44;10.07;96.71
64961;SHT31;51487;52.266;10.542;2023-03-19T04:04:10;10.04;96.73
64961;SHT31;51487;52.266;10.542;2023-03-19T04:06:35;10.00;96.84
64961;SHT31;51487;52.266;10.542;2023-03-19T04:09:01;9.99;96.76
64961;SHT31;51487;52.266;10.542;2023-03-19T04:11:26;9.93;96.81
64961;SHT31;51487;52.266;10.542;2023-03-19T04:13:55;9.90;96.94
64961;SHT31;51487;52.266;10.542;2023-03-19T04:16:22;9.92;97.02
64961;SHT31;51487;52.266;10.542;2023-03-19T04:18:48;9.90;96.89
64961;SHT31;51487;52.266;10.542;2023-03-19T04:21:13;9.92;96.90
64961;SHT31;51487;52.266;10.542;2023-03-19T04:23:38;9.90;96.96
64961;SHT31;51487;52.266;10.542;2023-03-19T04:26:05;9.90;96.83
64961;SHT31;51487;52.266;10.542;2023-03-19T04:28:33;9.85;97.01
64961;SHT31;51487;52.266;10.542;2023-03-19T04:31:00;9.86;96.87
64961;SHT31;51487;52.266;10.542;2023-03-19T04:33:26;9.90;96.76
64961;SHT31;51487;52.266;10.542;2023-03-19T04:35:51;9.87;96.62
64961;SHT31;51487;52.266;10.542;2023-03-19T04:38:18;9.86;96.69
64961;SHT31;51487;52.266;10.542;2023-03-19T04:40:44;9.85;96.53
64961;SHT31;51487;52.266;10.542;2023-03-19T04:43:10;9.87;96.42
64961;SHT31;51487;52.266;10.542;2023-03-19T04:45:35;9.85;96.60
64961;SHT31;51487;52.266;10.542;2023-03-19T04:48:01;9.78;96.72
64961;SHT31;51487;52.266;10.542;2023-03-19T04:50:26;9.81;96.57
64961;SHT31;51487;52.266;10.542;2023-03-19T04:52:52;9.75;96.61
64961;SHT31;51487;52.266;10.542;2023-03-19T04:55:17;9.76;96.65
64961;SHT31;51487;52.266;10.542;2023-03-19T04:57:42;9.66;96.77
64961;SHT31;51487;52.266;10.542;2023-03-19T05:00:11;9.68;96.70
64961;SHT31;51487;52.266;10.542;2023-03-19T05:02:36;9.66;96.75
64961;SHT31;51487;52.266;10.542;2023-03-19T05:05:02;9.68;96.81
64961;SHT31;51487;52.266;10.542;2023-03-19T05:07:28;9.75;96.86
64961;SHT31;51487;52.266;10.542;2023-03-19T05:09:53;9.81;96.81
64961;SHT31;51487;52.266;10.542;2023-03-19T05:12:19;9.85;96.65
64961;SHT31;51487;52.266;10.542;2023-03-19T05:14:44;9.86;96.48
64961;SHT31;51487;52.266;10.542;2023-03-19T05:17:10;9.86;96.46
64961;SHT31;51487;52.266;10.542;2023-03-19T05:19:37;9.93;96.41
64961;SHT31;51487;52.266;10.542;2023-03-19T05:22:03;9.99;96.13
64961;SHT31;51487;52.266;10.542;2023-03-19T05:24:29;10.00;96.00
64961;SHT31;51487;52.266;10.542;2023-03-19T05:26:54;10.03;95.83
64961;SHT31;51487;52.266;10.542;2023-03-19T05:29:20;10.02;95.61
64961;SHT31;51487;52.266;10.542;2023-03-19T05:31:46;10.04;95.49
64961;SHT31;51487;52.266;10.542;2023-03-19T05:34:12;10.04;95.49
64961;SHT31;51487;52.266;10.542;2023-03-19T05:36:37;10.02;95.28
64961;SHT31;51487;52.266;10.542;2023-03-19T05:39:03;10.04;95.29
64961;SHT31;51487;52.266;10.542;2023-03-19T05:41:30;10.07;95.29
64961;SHT31;51487;52.266;10.542;2023-03-19T05:43:55;10.00;95.14
64961;SHT31;51487;52.266;10.542;2023-03-19T05:46:21;10.03;95.12
64961;SHT31;51487;52.266;10.542;2023-03-19T05:48:47;10.04;95.08
64961;SHT31;51487;52.266;10.542;2023-03-19T05:51:12;9.97;95.03
64961;SHT31;51487;52.266;10.542;2023-03-19T05:53:37;9.94;95.15
64961;SHT31;51487;52.266;10.542;2023-03-19T05:56:03;9.92;95.24
64961;SHT31;51487;52.266;10.542;2023-03-19T05:58:29;10.00;95.32
64961;SHT31;51487;52.266;10.542;2023-03-19T06:00:55;10.07;95.31
64961;SHT31;51487;52.266;10.542;2023-03-19T06:03:21;10.07;95.05
64961;SHT31;51487;52.266;10.542;2023-03-19T06:05:49;10.12;94.94
64961;SHT31;51487;52.266;10.542;2023-03-19T06:08:15;10.20;94.77
64961;SHT31;51487;52.266;10.542;2023-03-19T06:10:41;10.29;94.66
64961;SHT31;51487;52.266;10.542;2023-03-19T06:13:06;10.33;94.46
64961;SHT31;51487;52.266;10.542;2023-03-19T06:15:32;10.41;94.38
64961;SHT31;51487;52.266;10.542;2023-03-19T06:17:57;10.44;94.32
64961;SHT31;51487;52.266;10.542;2023-03-19T06:20:22;10.51;94.19
64961;SHT31;51487;52.266;10.542;2023-03-19T06:22:48;10.57;93.92
64961;SHT31;51487;52.266;10.542;2023-03-19T06:25:13;10.65;93.75
64961;SHT31;51487;52.266;10.542;2023-03-19T06:27:38;10.68;93.74
64961;SHT31;51487;52.266;10.542;2023-03-19T06:30:04;10.68;93.73
64961;SHT31;51487;52.266;10.542;2023-03-19T06:32:30;10.64;93.88
64961;SHT31;51487;52.266;10.542;2023-03-19T06:34:55;10.62;93.87
64961;SHT31;51487;52.266;10.542;2023-03-19T06:37:21;10.65;93.80
64961;SHT31;51487;52.266;10.542;2023-03-19T06:39:46;10.61;93.90
64961;SHT31;51487;52.266;10.542;2023-03-19T06:42:12;10.67;93.92
64961;SHT31;51487;52.266;10.542;2023-03-19T06:44:38;10.74;93.81
64961;SHT31;51487;52.266;10.542;2023-03-19T06:47:03;10.81;93.84
64961;SHT31;51487;52.266;10.542;2023-03-19T06:49:29;10.89;93.67
64961;SHT31;51487;52.266;10.542;2023-03-19T06:51:54;10.99;93.41
64961;SHT31;51487;52.266;10.542;2023-03-19T06:54:20;11.16;93.08
64961;SHT31;51487;52.266;10.542;2023-03-19T06:56:45;11.24;92.73
64961;SHT31;51487;52.266;10.542;2023-03-19T06:59:11;11.33;92.64
64961;SHT31;51487;52.266;10.542;2023-03-19T07:01:41;11.33;92.79
64961;SHT31;51487;52.266;10.542;2023-03-19T07:04:07;11.43;92.59
64961;SHT31;51487;52.266;10.542;2023-03-19T07:06:32;11.57;92.35
64961;SHT31;51487;52.266;10.542;2023-03-19T07:08:59;11.67;92.23
64961;SHT31;51487;52.266;10.542;2023-03-19T07:11:24;11.74;91.83
64961;SHT31;51487;52.266;10.542;2023-03-19T07:13:50;11.88;91.44
64961;SHT31;51487;52.266;10.542;2023-03-19T07:16:15;12.06;90.98
64961;SHT31;51487;52.266;10.542;2023-03-19T07:18:40;12.18;90.19
64961;SHT31;51487;52.266;10.542;2023-03-19T07:21:06;12.29;89.73
64961;SHT31;51487;52.266;10.542;2023-03-19T07:23:31;12.36;89.62
64961;SHT31;51487;52.266;10.542;2023-03-19T07:25:57;12.57;89.12
64961;SHT31;51487;52.266;10.542;2023-03-19T07:28:22;12.57;88.51
64961;SHT31;51487;52.266;10.542;2023-03-19T07:30:50;12.77;88.03
64961;SHT31;51487;52.266;10.542;2023-03-19T07:33:16;12.80;87.60
64961;SHT31;51487;52.266;10.542;2023-03-19T07:35:42;12.97;86.90
64961;SHT31;51487;52.266;10.542;2023-03-19T07:38:08;13.03;86.34
64961;SHT31;51487;52.266;10.542;2023-03-19T07:40:34;13.15;85.94
64961;SHT31;51487;52.266;10.542;2023-03-19T07:42:59;13.18;85.37
64961;SHT31;51487;52.266;10.542;2023-03-19T07:45:25;13.15;85.37
64961;SHT31;51487;52.266;10.542;2023-03-19T07:47:51;13.19;85.01
64961;SHT31;51487;52.266;10.542;2023-03-19T07:50:16;13.22;84.91
64961;SHT31;51487;52.266;10.542;2023-03-19T07:52:48;13.12;85.29
64961;SHT31;51487;52.266;10.542;2023-03-19T07:55:15;13.18;85.08
64961;SHT31;51487;52.266;10.542;2023-03-19T07:57:41;13.14;85.27
64961;SHT31;51487;52.266;10.542;2023-03-19T08:00:07;13.10;85.51
64961;SHT31;51487;52.266;10.542;2023-03-19T08:02:32;13.08;85.54
64961;SHT31;51487;52.266;10.542;2023-03-19T08:04:58;13.11;85.44
64961;SHT31;51487;52.266;10.542;2023-03-19T08:07:26;13.11;85.72
64961;SHT31;51487;52.266;10.542;2023-03-19T08:09:51;13.00;86.25
64961;SHT31;51487;52.266;10.542;2023-03-19T08:12:17;13.11;85.82
64961;SHT31;51487;52.266;10.542;2023-03-19T08:14:42;12.97;86.07
64961;SHT31;51487;52.266;10.542;2023-03-19T08:17:08;13.01;86.32
64961;SHT31;51487;52.266;10.542;2023-03-19T08:19:33;13.10;85.77
64961;SHT31;51487;52.266;10.542;2023-03-19T08:21:58;13.06;85.71
64961;SHT31;51487;52.266;10.542;2023-03-19T08:24:24;13.04;85.66
64961;SHT31;51487;52.266;10.542;2023-03-19T08:26:49;13.11;85.60
64961;SHT31;51487;52.266;10.542;2023-03-19T08:29:15;13.04;85.44
64961;SHT31;51487;52.266;10.542;2023-03-19T08:31:40;12.98;85.82
64961;SHT31;51487;52.266;10.542;2023-03-19T08:34:07;13.04;86.06
64961;SHT31;51487;52.266;10.542;2023-03-19T08:36:35;13.04;85.99
64961;SHT31;51487;52.266;10.542;2023-03-19T08:39:00;13.01;86.29
64961;SHT31;51487;52.266;10.542;2023-03-19T08:41:25;12.93;86.70
64961;SHT31;51487;52.266;10.542;2023-03-19T08:43:51;12.81;87.27
64961;SHT31;51487;52.266;10.542;2023-03-19T08:46:16;12.66;88.07
64961;SHT31;51487;52.266;10.542;2023-03-19T08:48:42;12.50;88.68
64961;SHT31;51487;52.266;10.542;2023-03-19T08:51:08;12.40;89.56
64961;SHT31;51487;52.266;10.542;2023-03-19T08:53:34;12.22;90.55
64961;SHT31;51487;52.266;10.542;2023-03-19T08:56:02;12.24;90.87
64961;SHT31;51487;52.266;10.542;2023-03-19T08:58:31;12.11;91.54
64961;SHT31;51487;52.266;10.542;2023-03-19T09:01:08;12.11;91.98
64961;SHT31;51487;52.266;10.542;2023-03-19T09:03:35;12.09;92.21
64961;SHT31;51487;52.266;10.542;2023-03-19T09:06:02;11.94;92.81
64961;SHT31;51487;52.266;10.542;2023-03-19T09:08:29;12.05;92.44
64961;SHT31;51487;52.266;10.542;2023-03-19T09:10:55;12.22;92.20
64961;SHT31;51487;52.266;10.542;2023-03-19T09:13:21;12.38;91.96
64961;SHT31;51487;52.266;10.542;2023-03-19T09:15:47;12.35;92.43
64961;SHT31;51487;52.266;10.542;2023-03-19T09:18:13;12.50;92.11
64961;SHT31;51487;52.266;10.542;2023-03-19T09:20:39;12.64;91.95
64961;SHT31;51487;52.266;10.542;2023-03-19T09:23:04;12.88;90.99
64961;SHT31;51487;52.266;10.542;2023-03-19T09:25:30;12.94;91.18
64961;SHT31;51487;52.266;10.542;2023-03-19T09:27:55;12.97;90.73
64961;SHT31;51487;52.266;10.542;2023-03-19T09:30:20;13.06;91.25
64961;SHT31;51487;52.266;10.542;2023-03-19T09:32:46;13.29;91.05
64961;SHT31;51487;52.266;10.542;2023-03-19T09:35:11;13.44;90.27
64961;SHT31;51487;52.266;10.542;2023-03-19T09:37:36;13.45;91.04
64961;SHT31;51487;52.266;10.542;2023-03-19T09:40:02;13.48;91.30
64961;SHT31;51487;52.266;10.542;2023-03-19T09:45:03;13.54;91.22
64961;SHT31;51487;52.266;10.542;2023-03-19T09:47:36;13.48;90.90
64961;SHT31;51487;52.266;10.542;2023-03-19T09:50:18;13.73;89.72
64961;SHT31;51487;52.266;10.542;2023-03-19T09:52:46;13.86;89.44
64961;SHT31;51487;52.266;10.542;2023-03-19T09:55:30;13.91;88.87
64961;SHT31;51487;52.266;10.542;2023-03-19T09:57:58;13.99;88.44
64961;SHT31;51487;52.266;10.542;2023-03-19T10:00:29;13.90;87.40
64961;SHT31;51487;52.266;10.542;2023-03-19T10:16:49;14.14;83.17
64961;SHT31;51487;52.266;10.542;2023-03-19T10:19:21;14.20;82.20
64961;SHT31;51487;52.266;10.542;2023-03-19T10:21:56;14.27;83.54
64961;SHT31;51487;52.266;10.542;2023-03-19T10:24:33;14.30;84.74
64961;SHT31;51487;52.266;10.542;2023-03-19T10:27:09;14.37;85.16
64961;SHT31;51487;52.266;10.542;2023-03-19T10:29:36;14.44;83.56
64961;SHT31;51487;52.266;10.542;2023-03-19T10:34:48;14.47;83.67
64961;SHT31;51487;52.266;10.542;2023-03-19T10:37:22;14.49;84.47
64961;SHT31;51487;52.266;10.542;2023-03-19T10:39:51;14.60;84.65
64961;SHT31;51487;52.266;10.542;2023-03-19T10:45:24;14.72;84.22
64961;SHT31;51487;52.266;10.542;2023-03-19T10:47:50;14.79;84.35
64961;SHT31;51487;52.266;10.542;2023-03-19T10:56:09;15.07;83.74
64961;SHT31;51487;52.266;10.542;2023-03-19T10:58:40;15.16;82.98
64961;SHT31;51487;52.266;10.542;2023-03-19T11:01:19;15.22;81.42
64961;SHT31;51487;52.266;10.542;2023-03-19T11:03:55;15.29;80.11
64961;SHT31;51487;52.266;10.542;2023-03-19T11:06:32;15.37;79.74
64961;SHT31;51487;52.266;10.542;2023-03-19T11:09:13;15.46;78.94
64961;SHT31;51487;52.266;10.542;2023-03-19T11:11:50;15.57;78.76
64961;SHT31;51487;52.266;10.542;2023-03-19T11:14:26;15.63;77.39
64961;SHT31;51487;52.266;10.542;2023-03-19T11:16:56;15.65;77.14
64961;SHT31;51487;52.266;10.542;2023-03-19T11:19:27;15.71;77.21
64961;SHT31;51487;52.266;10.542;2023-03-19T11:22:14;15.68;77.41
64961;SHT31;51487;52.266;10.542;2023-03-19T11:24:47;15.78;76.49
64961;SHT31;51487;52.266;10.542;2023-03-19T11:27:13;15.84;75.24
64961;SHT31;51487;52.266;10.542;2023-03-19T11:29:41;15.84;74.75
64961;SHT31;51487;52.266;10.542;2023-03-19T11:32:37;15.92;75.00
64961;SHT31;51487;52.266;10.542;2023-03-19T11:37:49;16.25;74.62
64961;SHT31;51487;52.266;10.542;2023-03-19T11:49:10;16.84;72.92
64961;SHT31;51487;52.266;10.542;2023-03-19T11:51:50;16.88;72.70
64961;SHT31;51487;52.266;10.542;2023-03-19T11:57:11;17.22;72.00
64961;SHT31;51487;52.266;10.542;2023-03-19T12:00:10;17.55;71.09
64961;SHT31;51487;52.266;10.542;2023-03-19T12:06:17;17.65;70.21
64961;SHT31;51487;52.266;10.542;2023-03-19T12:09:09;17.96;69.92
64961;SHT31;51487;52.266;10.542;2023-03-19T12:31:44;17.39;70.65
64961;SHT31;51487;52.266;10.542;2023-03-19T12:34:25;17.39;71.43
64961;SHT31;51487;52.266;10.542;2023-03-19T12:39:28;17.45;68.65
64961;SHT31;51487;52.266;10.542;2023-03-19T12:41:57;17.48;68.82
64961;SHT31;51487;52.266;10.542;2023-03-19T12:44:34;17.36;69.17
64961;SHT31;51487;52.266;10.542;2023-03-19T12:47:13;17.50;68.60
64961;SHT31;51487;52.266;10.542;2023-03-19T12:49:48;17.73;68.65
64961;SHT31;51487;52.266;10.542;2023-03-19T12:52:36;17.80;68.39
64961;SHT31;51487;52.266;10.542;2023-03-19T12:55:18;17.87;69.67
64961;SHT31;51487;52.266;10.542;2023-03-19T12:57:54;17.82;70.10
64961;SHT31;51487;52.266;10.542;2023-03-19T13:03:01;17.83;66.30
64961;SHT31;51487;52.266;10.542;2023-03-19T13:05:41;17.76;66.86
64961;SHT31;51487;52.266;10.542;2023-03-19T13:10:38;17.53;65.24
64961;SHT31;51487;52.266;10.542;2023-03-19T13:13:21;17.76;64.25
64961;SHT31;51487;52.266;10.542;2023-03-19T13:15:51;17.90;64.01
64961;SHT31;51487;52.266;10.542;2023-03-19T13:18:42;17.90;63.66
64961;SHT31;51487;52.266;10.542;2023-03-19T13:21:22;17.90;63.56
64961;SHT31;51487;52.266;10.542;2023-03-19T13:26:47;18.10;63.25
64961;SHT31;51487;52.266;10.542;2023-03-19T13:29:25;17.93;64.01
64961;SHT31;51487;52.266;10.542;2023-03-19T13:31:52;17.96;62.88
64961;SHT31;51487;52.266;10.542;2023-03-19T13:34:25;17.76;65.73
64961;SHT31;51487;52.266;10.542;2023-03-19T13:37:06;17.85;63.66
64961;SHT31;51487;52.266;10.542;2023-03-19T13:39:36;17.91;63.39
64961;SHT31;51487;52.266;10.542;2023-03-19T13:44:39;17.75;64.39
64961;SHT31;51487;52.266;10.542;2023-03-19T13:50:11;17.77;63.00
64961;SHT31;51487;52.266;10.542;2023-03-19T13:58:48;17.66;61.18
64961;SHT31;51487;52.266;10.542;2023-03-19T14:03:55;17.55;61.52
64961;SHT31;51487;52.266;10.542;2023-03-19T14:09:00;17.66;61.84
64961;SHT31;51487;52.266;10.542;2023-03-19T14:11:31;17.63;62.09
64961;SHT31;51487;52.266;10.542;2023-03-19T14:14:12;17.38;63.24
64961;SHT31;51487;52.266;10.542;2023-03-19T14:16:43;17.28;64.52
64961;SHT31;51487;52.266;10.542;2023-03-19T14:19:14;17.34;63.99
64961;SHT31;51487;52.266;10.542;2023-03-19T14:27:10;17.27;64.08
64961;SHT31;51487;52.266;10.542;2023-03-19T14:29:41;17.19;64.81
64961;SHT31;51487;52.266;10.542;2023-03-19T14:32:14;16.36;68.23
64961;SHT31;51487;52.266;10.542;2023-03-19T14:34:42;16.09;69.20
64961;SHT31;51487;52.266;10.542;2023-03-19T14:37:23;16.04;69.43
64961;SHT31;51487;52.266;10.542;2023-03-19T14:42:56;15.77;69.90
64961;SHT31;51487;52.266;10.542;2023-03-19T14:45:38;15.74;70.71
64961;SHT31;51487;52.266;10.542;2023-03-19T14:55:52;15.00;82.43
64961;SHT31;51487;52.266;10.542;2023-03-19T14:58:19;15.06;82.56
64961;SHT31;51487;52.266;10.542;2023-03-19T15:00:49;15.10;82.59
64961;SHT31;51487;52.266;10.542;2023-03-19T15:03:31;15.07;83.66
64961;SHT31;51487;52.266;10.542;2023-03-19T15:05:59;15.12;84.12
64961;SHT31;51487;52.266;10.542;2023-03-19T15:08:25;15.16;83.05
64961;SHT31;51487;52.266;10.542;2023-03-19T15:16:20;15.39;82.68
64961;SHT31;51487;52.266;10.542;2023-03-19T15:18:48;15.57;82.87
64961;SHT31;51487;52.266;10.542;2023-03-19T15:21:13;15.64;81.47
64961;SHT31;51487;52.266;10.542;2023-03-19T15:23:40;15.65;80.97
64961;SHT31;51487;52.266;10.542;2023-03-19T15:26:09;15.77;80.24
64961;SHT31;51487;52.266;10.542;2023-03-19T15:28:48;15.88;80.29
64961;SHT31;51487;52.266;10.542;2023-03-19T15:31:14;15.92;80.34
64961;SHT31;51487;52.266;10.542;2023-03-19T15:33:40;15.87;79.78
64961;SHT31;51487;52.266;10.542;2023-03-19T15:36:19;15.92;78.44
64961;SHT31;51487;52.266;10.542;2023-03-19T15:38:59;15.88;77.14
64961;SHT31;51487;52.266;10.542;2023-03-19T15:41:29;15.82;77.65
64961;SHT31;51487;52.266;10.542;2023-03-19T15:43:56;15.84;77.64
64961;SHT31;51487;52.266;10.542;2023-03-19T15:46:25;15.91;77.34
64961;SHT31;51487;52.266;10.542;2023-03-19T15:49:12;15.90;77.79
64961;SHT31;51487;52.266;10.542;2023-03-19T15:51:43;16.00;77.85
64961;SHT31;51487;52.266;10.542;2023-03-19T15:54:10;16.04;76.79
64961;SHT31;51487;52.266;10.542;2023-03-19T15:56:36;15.91;75.83
64961;SHT31;51487;52.266;10.542;2023-03-19T15:59:01;15.82;75.41
64961;SHT31;51487;52.266;10.542;2023-03-19T16:01:30;15.80;76.20
64961;SHT31;51487;52.266;10.542;2023-03-19T16:03:59;15.71;76.22
64961;SHT31;51487;52.266;10.542;2023-03-19T16:06:28;15.53;76.28
64961;SHT31;51487;52.266;10.542;2023-03-19T16:09:04;15.55;75.28
64961;SHT31;51487;52.266;10.542;2023-03-19T16:11:35;15.46;74.15
64961;SHT31;51487;52.266;10.542;2023-03-19T16:16:34;15.33;77.26
64961;SHT31;51487;52.266;10.542;2023-03-19T16:19:01;15.27;77.63
64961;SHT31;51487;52.266;10.542;2023-03-19T16:21:34;15.20;78.28
64961;SHT31;51487;52.266;10.542;2023-03-19T16:31:43;15.05;76.66
64961;SHT31;51487;52.266;10.542;2023-03-19T16:36:49;14.92;76.75
64961;SHT31;51487;52.266;10.542;2023-03-19T16:44:57;14.74;78.65
64961;SHT31;51487;52.266;10.542;2023-03-19T16:47:26;14.63;78.79
64961;SHT31;51487;52.266;10.542;2023-03-19T16:49:51;14.55;79.18
64961;SHT31;51487;52.266;10.542;2023-03-19T16:52:19;14.51;79.35
64961;SHT31;51487;52.266;10.542;2023-03-19T16:54:46;14.45;79.44
64961;SHT31;51487;52.266;10.542;2023-03-19T16:57:13;14.42;79.20
64961;SHT31;51487;52.266;10.542;2023-03-19T16:59:40;14.47;79.13
64961;SHT31;51487;52.266;10.542;2023-03-19T17:02:11;14.45;79.38
64961;SHT31;51487;52.266;10.542;2023-03-19T17:04:36;14.52;79.10
64961;SHT31;51487;52.266;10.542;2023-03-19T17:07:02;14.57;79.14
64961;SHT31;51487;52.266;10.542;2023-03-19T17:09:27;14.48;77.82
64961;SHT31;51487;52.266;10.542;2023-03-19T17:11:52;14.54;77.14
64961;SHT31;51487;52.266;10.542;2023-03-19T17:14:19;14.57;76.67
64961;SHT31;51487;52.266;10.542;2023-03-19T17:16:46;14.54;77.44
64961;SHT31;51487;52.266;10.542;2023-03-19T17:19:20;14.48;78.04
64961;SHT31;51487;52.266;10.542;2023-03-19T17:21:47;14.40;78.43
64961;SHT31;51487;52.266;10.542;2023-03-19T17:24:33;14.30;79.09
64961;SHT31;51487;52.266;10.542;2023-03-19T17:27:00;14.23;80.40
64961;SHT31;51487;52.266;10.542;2023-03-19T17:29:26;14.13;80.45
64961;SHT31;51487;52.266;10.542;2023-03-19T17:31:54;14.09;80.26
64961;SHT31;51487;52.266;10.542;2023-03-19T17:34:29;14.05;81.17
64961;SHT31;51487;52.266;10.542;2023-03-19T17:36:59;13.99;81.74
64961;SHT31;51487;52.266;10.542;2023-03-19T17:39:25;13.93;82.18